Time;durP1;ratioP1;P1;durP2;ratioP2;P2;SDS_P1;SDS_P2;PMS_P1;PMS_P2;Temp;Humidity;BMP_temperature;BMP_pressure;BME280_temperature;BME280_humidity;BME280_pressure;Samples;Min_cycle;Max_cycle;Signal;HPM_P1;HPM_P2
2023/04/09 00:00:35;;;;;;;42.70;27.25;;;;;;;7.52;95.93;102038.84;5010753;28;20049;-70
2023/04/09 00:03:01;;;;;;;39.17;26.27;;;;;;;7.50;96.68;102037.06;5019348;28;20096;-70
2023/04/09 00:05:26;;;;;;;40.78;27.17;;;;;;;7.45;96.65;102037.81;5013224;28;20037;-70
2023/04/09 00:07:52;;;;;;;40.97;26.85;;;;;;;7.43;96.57;102026.63;5012327;28;20307;-70
2023/04/09 00:10:17;;;;;;;43.40;28.55;;;;;;;7.39;96.82;102031.66;5007937;28;20049;-70
2023/04/09 00:12:43;;;;;;;36.95;25.45;;;;;;;7.36;96.91;102032.44;5010546;28;20047;-70
2023/04/09 00:15:08;;;;;;;39.30;26.25;;;;;;;7.36;97.11;102031.56;5013288;28;20030;-71
2023/04/09 00:17:34;;;;;;;39.55;25.08;;;;;;;7.31;97.20;102028.91;5012949;28;20056;-70
2023/04/09 00:19:59;;;;;;;33.90;22.90;;;;;;;7.30;96.90;102026.28;5009999;28;20652;-70
2023/04/09 00:22:25;;;;;;;37.55;23.73;;;;;;;7.29;97.17;102032.28;5011328;28;20035;-71
2023/04/09 00:24:50;;;;;;;38.20;24.88;;;;;;;7.28;97.60;102025.38;5006168;28;20105;-70
2023/04/09 00:27:15;;;;;;;34.88;24.13;;;;;;;7.29;97.53;102025.44;5014762;28;20030;-70
2023/04/09 00:29:41;;;;;;;37.83;25.42;;;;;;;7.32;97.62;102029.78;5018889;28;20048;-71
2023/04/09 00:32:06;;;;;;;38.38;26.48;;;;;;;7.33;97.58;102031.50;5015868;28;20041;-72
2023/04/09 00:34:32;;;;;;;41.33;27.90;;;;;;;7.28;97.26;102026.25;5010112;28;20045;-70
2023/04/09 00:36:57;;;;;;;38.75;26.08;;;;;;;7.25;97.79;102023.59;5013832;28;20410;-70
2023/04/09 00:39:22;;;;;;;40.60;25.77;;;;;;;7.24;97.73;102032.13;5016177;28;20042;-71
2023/04/09 00:41:48;;;;;;;38.75;24.17;;;;;;;7.20;97.95;102027.78;5007220;28;20037;-70
2023/04/09 00:44:13;;;;;;;32.05;21.08;;;;;;;7.20;97.80;102029.47;5012083;28;20129;-70
2023/04/09 00:46:39;;;;;;;37.92;24.27;;;;;;;7.21;97.77;102026.91;5015605;28;20117;-70
2023/04/09 00:49:05;;;;;;;40.53;26.15;;;;;;;7.23;97.84;102021.84;5013629;28;20520;-70
2023/04/09 00:51:30;;;;;;;42.90;27.35;;;;;;;7.25;97.83;102028.75;5008227;28;20129;-70
2023/04/09 00:53:56;;;;;;;40.03;26.63;;;;;;;7.26;97.46;102025.34;5016381;28;20072;-71
2023/04/09 00:56:22;;;;;;;39.78;26.23;;;;;;;7.23;97.57;102033.00;5015055;28;20044;-70
2023/04/09 00:58:48;;;;;;;42.38;26.75;;;;;;;7.21;97.37;102031.22;5014898;28;20029;-70
2023/04/09 01:01:13;;;;;;;39.25;26.08;;;;;;;7.21;97.55;102028.66;5014955;28;20125;-71
2023/04/09 01:03:39;;;;;;;42.13;27.38;;;;;;;7.22;97.46;102038.09;5023371;28;20537;-71
2023/04/09 01:06:16;;;;;;;39.30;25.42;;;;;;;7.22;97.30;102035.50;5021790;28;20120;-70
2023/04/09 01:09:02;;;;;;;35.25;23.35;;;;;;;7.20;97.32;102027.78;5014855;28;20726;-70
2023/04/09 01:11:37;;;;;;;36.80;23.05;;;;;;;7.19;97.16;102020.88;5012280;28;20152;-70
2023/04/09 01:14:18;;;;;;;39.55;25.92;;;;;;;7.18;97.18;102023.44;5012664;28;21488;-70
2023/04/09 01:16:49;;;;;;;37.50;24.25;;;;;;;7.18;97.58;102019.13;5016541;28;20048;-70
2023/04/09 01:19:31;;;;;;;41.67;26.77;;;;;;;7.19;97.32;102015.72;5012537;28;20040;-70
2023/04/09 01:21:58;;;;;;;38.63;25.90;;;;;;;7.20;97.67;102021.75;5013486;28;20083;-70
2023/04/09 01:24:53;;;;;;;43.85;27.50;;;;;;;7.16;97.52;102019.94;5021014;28;20037;-70
2023/04/09 01:27:18;;;;;;;40.17;25.42;;;;;;;7.14;97.36;102016.41;5008790;28;20090;-70
2023/04/09 01:29:46;;;;;;;38.70;24.48;;;;;;;7.12;97.31;102015.53;5011749;28;20042;-70
2023/04/09 01:32:15;;;;;;;31.77;22.23;;;;;;;7.07;97.38;102015.38;5010577;28;20096;-70
2023/04/09 01:34:43;;;;;;;34.85;22.50;;;;;;;7.05;97.60;102018.75;5013512;28;20042;-70
2023/04/09 01:37:11;;;;;;;36.38;23.30;;;;;;;7.01;97.60;102015.22;5012590;28;20109;-70
2023/04/09 01:39:37;;;;;;;34.30;23.50;;;;;;;6.98;97.95;102011.69;5012650;28;20076;-70
2023/04/09 01:42:04;;;;;;;33.20;22.65;;;;;;;6.93;97.90;102019.31;5018108;28;20085;-70
2023/04/09 01:44:31;;;;;;;40.15;24.98;;;;;;;6.89;97.75;102020.94;5015033;28;20120;-70
2023/04/09 01:46:57;;;;;;;36.90;23.65;;;;;;;6.82;97.83;102019.00;5014530;28;20098;-70
2023/04/09 01:49:23;;;;;;;35.63;23.15;;;;;;;6.78;98.16;102017.22;5018543;28;20037;-70
2023/04/09 01:51:49;;;;;;;35.83;22.15;;;;;;;6.74;98.20;102017.06;5016025;28;20771;-71
2023/04/09 01:54:15;;;;;;;33.72;21.92;;;;;;;6.71;98.38;102016.97;5017518;28;20048;-71
2023/04/09 01:56:46;;;;;;;35.10;21.90;;;;;;;6.69;98.11;102013.50;5015946;28;20034;-71
2023/04/09 01:59:12;;;;;;;40.45;24.98;;;;;;;6.68;98.50;102009.19;5013184;28;20065;-70
2023/04/09 02:01:45;;;;;;;34.90;22.50;;;;;;;6.69;98.76;102011.81;5017785;28;20718;-70
2023/04/09 02:04:30;;;;;;;30.50;19.58;;;;;;;6.71;98.57;102014.41;5023877;28;20040;-70
2023/04/09 02:07:22;;;;;;;37.35;22.90;;;;;;;6.74;98.46;102012.81;5022051;28;20406;-70
2023/04/09 02:09:48;;;;;;;34.40;20.17;;;;;;;6.74;98.30;102012.81;5019548;28;20044;-70
2023/04/09 02:12:17;;;;;;;28.90;19.90;;;;;;;6.75;97.98;102011.09;5023745;28;20041;-70
2023/04/09 02:14:45;;;;;;;29.27;19.63;;;;;;;6.75;98.21;102005.97;5017016;28;20144;-70
2023/04/09 02:17:12;;;;;;;29.00;18.98;;;;;;;6.76;98.08;102005.16;5020857;28;20177;-70
2023/04/09 02:19:42;;;;;;;34.13;19.42;;;;;;;6.77;98.08;102006.88;5021386;28;20309;-70
2023/04/09 02:22:08;;;;;;;26.77;17.77;;;;;;;6.78;98.13;102003.47;5023295;28;20390;-70
2023/04/09 02:24:35;;;;;;;26.55;16.98;;;;;;;6.79;97.91;102002.66;5018844;28;20607;-70
2023/04/09 02:27:01;;;;;;;29.65;20.02;;;;;;;6.78;97.95;101999.22;5022052;28;20042;-70
2023/04/09 02:29:26;;;;;;;34.17;21.42;;;;;;;6.73;97.47;102003.34;5015488;28;20052;-70
2023/04/09 02:31:52;;;;;;;29.60;18.63;;;;;;;6.67;97.47;102003.22;5025618;28;20484;-70
2023/04/09 02:34:18;;;;;;;28.15;18.23;;;;;;;6.60;97.30;102001.28;5017608;28;20622;-70
2023/04/09 02:36:43;;;;;;;29.77;19.88;;;;;;;6.56;97.51;101996.88;5020570;28;20033;-70
2023/04/09 02:39:08;;;;;;;30.17;19.30;;;;;;;6.54;97.66;101995.97;5018915;28;20033;-70
2023/04/09 02:41:34;;;;;;;27.25;17.83;;;;;;;6.54;97.88;101995.97;5022139;28;20443;-70
2023/04/09 02:43:59;;;;;;;34.25;20.85;;;;;;;6.55;98.65;101996.84;5018001;28;20486;-69
2023/04/09 02:46:25;;;;;;;32.90;19.88;;;;;;;6.57;98.67;101995.19;5019704;28;20095;-70
2023/04/09 02:48:50;;;;;;;30.52;19.30;;;;;;;6.59;97.83;101996.97;5016981;28;20050;-69
2023/04/09 02:51:15;;;;;;;33.60;20.80;;;;;;;6.64;97.76;101999.69;5020652;28;20046;-70
2023/04/09 02:53:41;;;;;;;31.52;19.45;;;;;;;6.64;97.63;101995.41;5017660;28;20697;-70
2023/04/09 02:56:06;;;;;;;30.65;19.75;;;;;;;6.64;97.50;101995.41;5016296;28;20454;-71
2023/04/09 02:58:31;;;;;;;34.45;20.33;;;;;;;6.63;96.93;101993.66;5017810;28;20435;-70
2023/04/09 03:00:57;;;;;;;33.05;20.42;;;;;;;6.63;96.66;101991.09;5017895;28;20806;-70
2023/04/09 03:03:22;;;;;;;32.60;19.92;;;;;;;6.59;97.25;101978.97;5013550;28;21060;-70
2023/04/09 03:05:47;;;;;;;30.25;20.15;;;;;;;6.55;96.90;101982.31;5012402;28;20096;-70
2023/04/09 03:08:13;;;;;;;33.28;20.33;;;;;;;6.49;96.49;101987.28;5020500;28;20128;-70
2023/04/09 03:10:39;;;;;;;34.25;19.38;;;;;;;6.44;96.95;101976.00;5017206;28;20131;-69
2023/04/09 03:13:04;;;;;;;35.05;20.35;;;;;;;6.37;96.94;101976.69;5014441;28;20578;-70
2023/04/09 03:15:30;;;;;;;28.98;18.42;;;;;;;6.33;97.48;101980.84;5011860;28;20692;-69
2023/04/09 03:17:55;;;;;;;34.33;20.60;;;;;;;6.28;97.52;101977.28;5017068;28;20044;-69
2023/04/09 03:20:20;;;;;;;32.20;19.85;;;;;;;6.26;97.66;101975.47;5014662;28;20045;-70
2023/04/09 03:22:46;;;;;;;33.05;19.98;;;;;;;6.20;97.71;101978.75;5015989;28;20041;-70
2023/04/09 03:25:11;;;;;;;27.20;18.00;;;;;;;6.18;97.95;101975.28;4996544;28;20030;-69
2023/04/09 03:27:36;;;;;;;33.22;20.73;;;;;;;6.15;98.12;101976.88;5013232;28;20128;-70
2023/04/09 03:30:02;;;;;;;35.10;22.08;;;;;;;6.14;97.96;101975.16;5016776;28;20176;-71
2023/04/09 03:32:28;;;;;;;32.50;20.75;;;;;;;6.14;98.49;101976.00;5015576;28;20091;-70
2023/04/09 03:34:53;;;;;;;30.90;20.08;;;;;;;6.14;98.46;101978.56;5017106;28;20087;-69
2023/04/09 03:37:18;;;;;;;29.67;19.30;;;;;;;6.15;98.70;101971.75;5015731;28;20658;-70
2023/04/09 03:39:44;;;;;;;37.55;21.92;;;;;;;6.18;98.81;101977.84;5014682;28;20518;-70
2023/04/09 03:42:09;;;;;;;31.75;19.95;;;;;;;6.18;98.65;101980.41;5008212;28;20041;-69
2023/04/09 03:44:34;;;;;;;32.30;20.17;;;;;;;6.18;98.62;101971.84;5010369;28;20061;-70
2023/04/09 03:47:00;;;;;;;33.70;21.00;;;;;;;6.17;98.93;101973.53;5013913;28;20061;-70
2023/04/09 03:49:25;;;;;;;34.30;20.00;;;;;;;6.14;99.06;101965.75;5014178;28;20771;-70
2023/04/09 03:51:50;;;;;;;34.40;20.58;;;;;;;6.14;98.45;101970.03;5022082;28;20037;-69
2023/04/09 03:54:16;;;;;;;32.75;20.85;;;;;;;6.12;99.09;101972.53;5015638;28;20769;-70
2023/04/09 03:56:41;;;;;;;31.67;20.33;;;;;;;6.11;98.71;101973.34;5017226;28;20045;-70
2023/04/09 03:59:06;;;;;;;32.47;19.23;;;;;;;6.12;98.59;101964.84;5015664;28;20044;-70
2023/04/09 04:01:33;;;;;;;35.35;20.77;;;;;;;6.12;98.79;101974.22;5013818;28;20061;-70
2023/04/09 04:03:59;;;;;;;33.72;21.52;;;;;;;6.14;98.71;101973.44;5017810;28;20037;-69
2023/04/09 04:06:24;;;;;;;34.75;21.70;;;;;;;6.14;99.11;101973.44;5016492;28;20041;-69
2023/04/09 04:08:50;;;;;;;36.70;21.90;;;;;;;6.16;98.89;101973.50;5006051;28;20330;-70
2023/04/09 04:11:15;;;;;;;34.38;21.48;;;;;;;6.18;98.27;101975.28;5013670;28;20701;-70
2023/04/09 04:13:40;;;;;;;34.78;22.17;;;;;;;6.18;98.41;101965.00;5019323;28;20040;-70
2023/04/09 04:16:08;;;;;;;34.45;21.60;;;;;;;6.18;97.94;101965.00;5013207;28;20141;-69
2023/04/09 04:18:34;;;;;;;36.28;21.25;;;;;;;6.20;97.94;101962.50;5011428;28;20037;-69
2023/04/09 04:20:59;;;;;;;37.92;23.17;;;;;;;6.19;98.15;101963.31;5014572;28;20038;-69
2023/04/09 04:23:24;;;;;;;35.95;24.30;;;;;;;6.18;98.18;101962.44;5017192;28;20037;-69
2023/04/09 04:25:51;;;;;;;36.03;23.30;;;;;;;6.18;97.87;101966.69;5013748;28;20034;-69
2023/04/09 04:28:17;;;;;;;37.35;21.88;;;;;;;6.21;97.73;101959.09;5012063;28;20294;-69
2023/04/09 04:30:42;;;;;;;33.63;21.50;;;;;;;6.23;97.05;101965.13;5015995;28;20414;-69
2023/04/09 04:33:08;;;;;;;37.47;22.52;;;;;;;6.25;97.10;101969.50;5012011;28;20071;-69
2023/04/09 04:35:33;;;;;;;34.47;21.95;;;;;;;6.25;97.16;101961.81;5010728;28;20141;-69
2023/04/09 04:37:59;;;;;;;35.92;22.40;;;;;;;6.21;97.58;101961.66;5013180;28;20128;-69
2023/04/09 04:40:24;;;;;;;30.30;19.92;;;;;;;6.19;97.47;101958.19;5015528;28;20068;-69
2023/04/09 04:42:49;;;;;;;33.03;21.23;;;;;;;6.17;97.40;101967.56;5011882;28;20076;-69
2023/04/09 04:45:15;;;;;;;32.70;21.20;;;;;;;6.16;97.23;101969.25;5010169;28;20041;-69
2023/04/09 04:47:40;;;;;;;33.10;21.13;;;;;;;6.17;97.17;101960.69;5009762;28;20133;-69
2023/04/09 04:50:06;;;;;;;31.90;19.77;;;;;;;6.18;96.82;101962.44;5008640;28;21190;-70
2023/04/09 04:52:32;;;;;;;32.45;19.45;;;;;;;6.24;96.56;101961.75;5014672;28;20045;-69
2023/04/09 04:54:57;;;;;;;33.05;18.02;;;;;;;6.26;96.16;101960.06;5007408;28;20065;-70
2023/04/09 04:57:22;;;;;;;25.88;17.30;;;;;;;6.29;95.89;101960.16;5010783;28;20045;-70
2023/04/09 04:59:48;;;;;;;27.52;16.83;;;;;;;6.30;95.36;101960.22;5009417;28;20081;-71
2023/04/09 05:02:13;;;;;;;29.50;17.70;;;;;;;6.29;95.42;101958.47;5013030;28;20037;-69
2023/04/09 05:04:38;;;;;;;27.35;17.48;;;;;;;6.30;95.32;101972.19;5019745;28;20118;-70
2023/04/09 05:07:04;;;;;;;24.83;16.50;;;;;;;6.30;95.63;101969.63;5013286;28;20030;-70
2023/04/09 05:09:29;;;;;;;27.80;17.67;;;;;;;6.31;95.61;101966.22;5013399;28;20132;-70
2023/04/09 05:11:56;;;;;;;28.35;16.73;;;;;;;6.32;95.17;101967.94;5009436;28;20144;-70
2023/04/09 05:14:21;;;;;;;26.45;14.93;;;;;;;6.32;95.04;101968.81;5012453;28;20052;-70
2023/04/09 05:16:46;;;;;;;28.35;15.07;;;;;;;6.34;95.40;101968.88;5016097;28;20386;-70
2023/04/09 05:19:12;;;;;;;23.60;14.25;;;;;;;6.37;95.03;101971.53;5016144;28;20063;-69
2023/04/09 05:21:37;;;;;;;25.80;15.60;;;;;;;6.42;94.67;101985.38;5015616;28;20125;-70
2023/04/09 05:24:03;;;;;;;23.92;14.75;;;;;;;6.48;94.14;101979.53;5014872;28;20053;-71
2023/04/09 05:26:29;;;;;;;25.63;15.13;;;;;;;6.52;93.59;101978.78;5016745;28;20076;-72
2023/04/09 05:28:54;;;;;;;24.50;15.48;;;;;;;6.56;93.40;101983.16;5012324;28;20057;-70
2023/04/09 05:31:20;;;;;;;27.73;14.57;;;;;;;6.65;92.54;101981.72;5012500;28;20033;-70
2023/04/09 05:33:45;;;;;;;25.77;14.77;;;;;;;6.68;92.09;101984.38;5013490;28;20034;-70
2023/04/09 05:36:17;;;;;;;24.67;14.07;;;;;;;6.77;90.49;101981.16;5012552;28;20503;-70
2023/04/09 05:38:45;;;;;;;21.85;13.70;;;;;;;6.84;89.82;101980.50;5016349;28;20042;-69
2023/04/09 05:41:10;;;;;;;20.58;13.85;;;;;;;6.89;89.82;101979.81;5013660;28;20041;-70
2023/04/09 05:43:35;;;;;;;19.88;13.10;;;;;;;6.95;89.57;101976.50;5009995;28;20034;-69
2023/04/09 05:46:01;;;;;;;20.35;13.35;;;;;;;7.02;89.01;101983.56;5013128;28;20612;-70
2023/04/09 05:48:26;;;;;;;21.52;13.65;;;;;;;7.09;88.64;101984.59;5012631;28;20041;-70
2023/04/09 05:50:52;;;;;;;23.45;11.90;;;;;;;7.16;88.20;101978.78;5011779;28;20628;-69
2023/04/09 05:53:18;;;;;;;22.15;12.43;;;;;;;7.26;87.53;101985.91;5009572;28;20045;-70
2023/04/09 05:55:45;;;;;;;21.88;12.40;;;;;;;7.28;86.96;101979.97;5012618;28;20437;-70
2023/04/09 05:58:11;;;;;;;18.88;11.43;;;;;;;7.34;86.23;101981.81;5010830;28;20022;-70
2023/04/09 06:00:36;;;;;;;19.85;12.35;;;;;;;7.39;86.51;101982.78;5013822;28;20061;-70
2023/04/09 06:03:02;;;;;;;20.95;12.93;;;;;;;7.43;86.23;101979.47;5011055;28;20099;-70
2023/04/09 06:05:27;;;;;;;21.90;12.82;;;;;;;7.47;86.26;101986.44;5011591;28;20030;-70
2023/04/09 06:07:53;;;;;;;18.77;11.48;;;;;;;7.54;85.48;101980.56;5009105;28;20034;-71
2023/04/09 06:10:18;;;;;;;21.25;12.02;;;;;;;7.57;84.87;101982.34;5012372;28;20073;-70
2023/04/09 06:12:43;;;;;;;19.38;11.85;;;;;;;7.64;84.74;101979.97;5015101;28;20671;-70
2023/04/09 06:15:09;;;;;;;18.17;10.68;;;;;;;7.72;84.08;101975.84;5007236;28;20034;-70
2023/04/09 06:17:35;;;;;;;19.23;11.20;;;;;;;7.78;84.72;101975.97;5012444;28;20046;-70
2023/04/09 06:20:00;;;;;;;18.58;11.52;;;;;;;7.76;83.58;101974.22;5013847;28;20059;-71
2023/04/09 06:22:26;;;;;;;19.55;11.48;;;;;;;7.79;83.62;101976.84;5010097;28;20033;-70
2023/04/09 06:24:51;;;;;;;19.88;12.50;;;;;;;7.84;83.65;101985.53;5012026;28;20521;-72
2023/04/09 06:27:17;;;;;;;17.27;11.10;;;;;;;7.90;83.07;101978.84;5013608;28;20104;-70
2023/04/09 06:29:43;;;;;;;17.30;11.85;;;;;;;7.92;83.04;101977.16;5011261;28;20494;-70
2023/04/09 06:32:08;;;;;;;18.77;10.85;;;;;;;7.93;83.00;101970.31;5012569;28;20045;-70
2023/04/09 06:34:34;;;;;;;19.27;10.50;;;;;;;7.94;82.42;101967.78;5019269;28;20033;-70
2023/04/09 06:37:00;;;;;;;15.70;9.85;;;;;;;7.92;82.70;101972.00;5012720;28;20034;-70
2023/04/09 06:39:25;;;;;;;17.48;10.48;;;;;;;8.00;82.57;101980.78;5017549;28;20037;-69
2023/04/09 06:41:52;;;;;;;18.63;10.93;;;;;;;8.02;82.65;101979.09;5014000;28;20076;-70
2023/04/09 06:44:18;;;;;;;18.15;10.68;;;;;;;8.11;81.91;101975.84;5011195;28;20038;-69
2023/04/09 06:46:44;;;;;;;17.30;11.48;;;;;;;8.18;81.44;101975.16;5015355;28;20033;-69
2023/04/09 06:49:09;;;;;;;22.95;11.20;;;;;;;8.26;81.90;101980.44;5013540;28;20034;-69
2023/04/09 06:51:35;;;;;;;17.60;10.25;;;;;;;8.33;80.91;101984.88;5017878;28;20045;-70
2023/04/09 06:54:00;;;;;;;17.80;11.05;;;;;;;8.42;80.59;101980.78;5000117;28;20140;-68
2023/04/09 06:56:25;;;;;;;17.92;10.57;;;;;;;8.50;80.82;101988.66;5026465;28;20095;-69
2023/04/09 06:58:51;;;;;;;18.17;10.40;;;;;;;8.54;80.80;101982.75;5018737;28;20041;-69
2023/04/09 07:01:16;;;;;;;15.65;9.95;;;;;;;8.62;79.01;101982.88;5019848;28;20795;-69
2023/04/09 07:03:42;;;;;;;17.45;10.27;;;;;;;8.58;79.74;101982.81;5018994;28;20060;-68
2023/04/09 07:06:07;;;;;;;15.15;10.38;;;;;;;8.62;79.14;101988.03;5018175;28;20061;-70
2023/04/09 07:08:32;;;;;;;16.38;10.10;;;;;;;8.70;79.25;101989.03;5014499;28;20054;-69
2023/04/09 07:10:58;;;;;;;15.30;9.20;;;;;;;8.74;79.34;101975.38;5015531;28;20978;-70
2023/04/09 07:13:23;;;;;;;16.40;9.95;;;;;;;8.80;79.02;101981.50;5015883;28;20087;-69
2023/04/09 07:15:49;;;;;;;15.52;9.85;;;;;;;8.90;78.69;101980.81;5017998;28;20033;-69
2023/04/09 07:18:14;;;;;;;15.48;9.90;;;;;;;8.94;78.20;101979.16;5013889;28;20034;-69
2023/04/09 07:20:40;;;;;;;15.13;9.73;;;;;;;8.98;77.87;101989.56;5009005;28;20041;-69
2023/04/09 07:23:05;;;;;;;16.92;10.75;;;;;;;9.05;77.63;101978.50;5018502;28;20125;-69
2023/04/09 07:25:31;;;;;;;16.90;9.93;;;;;;;9.10;77.35;101982.06;5018540;28;20042;-69
2023/04/09 07:27:56;;;;;;;18.20;10.00;;;;;;;9.22;76.55;101968.50;5024044;28;20069;-69
2023/04/09 07:30:22;;;;;;;14.95;9.85;;;;;;;9.36;77.04;101972.16;5022247;28;20075;-69
2023/04/09 07:32:47;;;;;;;15.50;9.63;;;;;;;9.53;75.16;101964.66;5008808;28;20050;-69
2023/04/09 07:35:13;;;;;;;15.05;9.88;;;;;;;9.62;75.36;101962.25;5013110;28;20038;-69
2023/04/09 07:37:38;;;;;;;14.55;9.40;;;;;;;9.61;73.73;101953.63;5021725;28;20040;-69
2023/04/09 07:40:04;;;;;;;14.10;9.10;;;;;;;9.61;74.75;101961.38;5017440;28;20025;-69
2023/04/09 07:42:30;;;;;;;17.90;10.48;;;;;;;9.61;75.86;101976.84;5020371;28;20049;-69
2023/04/09 07:44:55;;;;;;;15.10;9.73;;;;;;;9.57;75.58;101969.03;5017023;28;20068;-69
2023/04/09 07:47:21;;;;;;;14.98;9.02;;;;;;;9.54;76.15;101981.88;5023342;28;20045;-69
2023/04/09 07:49:47;;;;;;;16.40;9.65;;;;;;;9.60;75.69;101984.59;5012974;28;20136;-70
2023/04/09 07:52:12;;;;;;;16.88;9.88;;;;;;;9.72;76.91;101991.66;5019693;28;20464;-69
2023/04/09 07:54:38;;;;;;;15.15;9.32;;;;;;;9.69;74.92;101961.50;5016808;28;20044;-69
2023/04/09 07:57:03;;;;;;;13.27;9.02;;;;;;;9.71;74.97;101961.50;5018024;28;20037;-69
2023/04/09 07:59:30;;;;;;;15.48;8.98;;;;;;;9.87;75.42;101981.53;5009444;28;20077;-69
2023/04/09 08:01:55;;;;;;;12.57;8.65;;;;;;;10.05;73.83;101958.53;5015741;28;20104;-69
2023/04/09 08:04:21;;;;;;;13.40;9.02;;;;;;;10.08;73.69;101954.28;5018046;28;20045;-69
2023/04/09 08:06:49;;;;;;;14.77;9.10;;;;;;;10.15;73.69;101974.16;5028108;28;20045;-69
2023/04/09 08:09:16;;;;;;;14.70;9.52;;;;;;;10.26;73.80;101960.53;5015969;28;20540;-69
2023/04/09 08:11:41;;;;;;;14.90;9.63;;;;;;;10.38;73.30;101961.53;5021111;28;20103;-69
2023/04/09 08:14:11;;;;;;;12.57;8.27;;;;;;;10.41;70.91;101917.63;5007737;28;20045;-69
2023/04/09 08:16:41;;;;;;;11.45;7.75;;;;;;;10.49;70.81;101930.63;5019743;28;20128;-69
2023/04/09 08:19:07;;;;;;;11.80;7.63;;;;;;;10.60;69.85;101903.16;5013732;28;20076;-70
2023/04/09 08:21:33;;;;;;;11.43;7.82;;;;;;;10.80;67.58;101855.09;5016031;28;20104;-69
2023/04/09 08:24:03;;;;;;;12.43;7.60;;;;;;;10.91;67.30;101863.78;5017309;28;20037;-70
2023/04/09 08:26:29;;;;;;;9.90;6.68;;;;;;;10.99;65.99;101823.31;5020080;28;20725;-70
2023/04/09 08:28:54;;;;;;;10.93;7.38;;;;;;;11.15;66.67;101861.38;5013746;28;20031;-66
2023/04/09 08:31:19;;;;;;;11.63;7.43;;;;;;;11.19;66.62;101847.59;5017448;28;20033;-65
2023/04/09 08:33:45;;;;;;;13.52;6.82;;;;;;;11.29;65.33;101836.44;5016809;28;20526;-66
2023/04/09 08:36:11;;;;;;;11.07;7.72;;;;;;;11.34;65.07;101834.75;5019704;28;20091;-66
2023/04/09 08:38:36;;;;;;;10.80;7.22;;;;;;;11.45;64.46;101819.31;5016670;28;20045;-65
2023/04/09 08:41:02;;;;;;;9.77;6.43;;;;;;;11.57;63.54;101806.44;5016219;28;20072;-67
2023/04/09 08:43:27;;;;;;;10.52;6.78;;;;;;;11.59;62.69;101791.75;5017486;28;20035;-65
2023/04/09 08:45:56;;;;;;;8.30;5.70;;;;;;;11.67;60.77;101760.69;4999958;28;20049;-65
2023/04/09 08:48:23;;;;;;;9.00;6.65;;;;;;;11.77;62.35;101790.94;4998835;28;20049;-66
2023/04/09 08:50:48;;;;;;;9.50;6.55;;;;;;;11.88;60.75;101758.16;5004917;28;20100;-66
2023/04/09 08:53:16;;;;;;;8.00;5.03;;;;;;;12.08;56.81;101693.44;5017982;28;20508;-66
2023/04/09 08:55:45;;;;;;;7.35;4.50;;;;;;;12.16;56.19;101691.69;5018200;28;20033;-66
2023/04/09 08:58:10;;;;;;;9.60;6.22;;;;;;;12.21;57.11;101729.72;5020089;28;20467;-65
2023/04/09 09:00:36;;;;;;;9.30;5.65;;;;;;;12.28;56.37;101723.66;5025801;28;20045;-65
2023/04/09 09:03:03;;;;;;;10.10;6.25;;;;;;;12.44;55.90;101714.13;5026522;28;20498;-66
2023/04/09 09:05:41;;;;;;;7.35;5.30;;;;;;;12.43;52.86;101650.19;5026178;28;20095;-65
2023/04/09 09:08:09;;;;;;;7.75;5.22;;;;;;;12.52;53.81;101683.03;5019099;28;20037;-65
2023/04/09 09:10:43;;;;;;;7.90;5.38;;;;;;;12.66;54.15;101696.81;5027299;28;20035;-68
2023/04/09 09:13:26;;;;;;;7.93;5.45;;;;;;;12.64;52.69;101675.22;5015271;28;20018;-66
2023/04/09 09:16:11;;;;;;;7.82;5.38;;;;;;;12.70;53.45;101696.78;5017203;28;20041;-65
2023/04/09 09:18:39;;;;;;;9.00;6.05;;;;;;;12.82;54.83;101721.88;5019437;28;20132;-65
2023/04/09 09:21:12;;;;;;;8.57;5.78;;;;;;;12.92;55.18;101731.34;5018178;28;20080;-66
2023/04/09 09:23:37;;;;;;;8.70;5.78;;;;;;;13.00;54.38;101708.84;5017178;28;20095;-66
2023/04/09 09:26:23;;;;;;;8.18;5.72;;;;;;;13.13;52.67;101687.19;5021895;28;20596;-66
2023/04/09 09:28:49;;;;;;;8.60;6.15;;;;;;;13.30;52.92;101679.31;5015625;28;20033;-66
2023/04/09 09:31:17;;;;;;;8.52;5.90;;;;;;;13.20;51.57;101678.50;5000281;28;20034;-66
2023/04/09 09:33:43;;;;;;;8.02;5.63;;;;;;;13.21;51.92;101680.22;5016162;28;20128;-66
2023/04/09 09:36:08;;;;;;;9.15;7.13;;;;;;;13.24;52.67;101687.13;5016447;28;20554;-66
2023/04/09 09:38:51;;;;;;;9.32;6.57;;;;;;;13.18;52.14;101669.84;5003650;28;20391;-66
2023/04/09 09:41:18;;;;;;;8.88;6.80;;;;;;;13.08;54.28;101720.09;5007140;28;20525;-66
2023/04/09 09:43:43;;;;;;;9.63;6.18;;;;;;;13.32;52.54;101681.06;5009205;28;20478;-65
2023/04/09 09:46:10;;;;;;;9.00;6.53;;;;;;;13.55;51.50;101665.34;5016333;28;20038;-65
2023/04/09 09:48:35;;;;;;;8.15;5.95;;;;;;;13.50;51.20;101654.97;5022348;28;20100;-66
2023/04/09 09:51:05;;;;;;;11.38;6.47;;;;;;;13.54;52.17;101674.84;5008287;28;20131;-65
2023/04/09 09:53:32;;;;;;;11.02;7.13;;;;;;;13.62;51.35;101659.25;5010495;28;20248;-66
2023/04/09 09:55:59;;;;;;;9.85;6.95;;;;;;;13.93;51.15;101652.06;5026139;28;20052;-66
2023/04/09 09:58:35;;;;;;;11.10;7.57;;;;;;;14.19;52.74;101675.25;5019298;28;20066;-67
2023/04/09 10:01:02;;;;;;;11.88;6.38;;;;;;;14.36;50.77;101637.81;5017173;28;20033;-66
2023/04/09 10:03:30;;;;;;;9.27;7.03;;;;;;;14.44;50.02;101633.44;5026354;28;20072;-65
2023/04/09 10:05:57;;;;;;;9.57;7.45;;;;;;;14.68;51.84;101666.13;5027139;28;20939;-66
2023/04/09 10:08:23;;;;;;;11.77;7.95;;;;;;;14.63;49.31;101629.72;5028874;28;20046;-66
2023/04/09 10:10:50;;;;;;;11.30;7.75;;;;;;;14.50;50.28;101629.91;5022980;28;20032;-66
2023/04/09 10:13:30;;;;;;;10.65;7.50;;;;;;;14.70;52.70;101687.78;5014110;28;20371;-66
2023/04/09 10:15:56;;;;;;;9.70;6.60;;;;;;;14.55;49.56;101628.09;5028377;28;20030;-66
2023/04/09 10:18:22;;;;;;;10.82;6.22;;;;;;;14.76;47.42;101581.00;5022657;28;20095;-66
2023/04/09 10:20:57;;;;;;;9.40;5.60;;;;;;;15.00;48.61;101611.94;5011573;28;20045;-66
2023/04/09 10:23:39;;;;;;;8.15;5.60;;;;;;;14.97;47.50;101587.69;5019803;28;20045;-66
2023/04/09 10:26:05;;;;;;;7.10;5.43;;;;;;;14.96;46.14;101573.81;5012038;28;20034;-66
2023/04/09 10:28:31;;;;;;;8.15;6.00;;;;;;;15.23;47.53;101592.56;5003395;28;20029;-66
2023/04/09 10:30:57;;;;;;;9.80;6.70;;;;;;;15.33;47.61;101596.72;5019892;28;20558;-71
2023/04/09 10:33:28;;;;;;;9.43;6.30;;;;;;;15.46;46.99;101586.13;5023344;28;20041;-71
2023/04/09 10:35:58;;;;;;;9.23;6.80;;;;;;;15.62;46.57;101578.91;5021350;28;20029;-72
2023/04/09 10:38:34;;;;;;;8.27;5.85;;;;;;;15.79;44.48;101555.22;5013610;28;20041;-70
2023/04/09 10:41:11;;;;;;;7.80;5.78;;;;;;;16.03;44.36;101544.31;5019592;28;20034;-71
2023/04/09 10:43:37;;;;;;;8.98;6.38;;;;;;;16.12;45.03;101570.25;5023788;28;20512;-71
2023/04/09 10:46:23;;;;;;;12.32;6.55;;;;;;;16.04;45.40;101583.44;5020272;28;20029;-71
2023/04/09 10:48:49;;;;;;;7.30;5.72;;;;;;;16.06;46.05;101604.25;5019770;28;20051;-70
2023/04/09 10:51:18;;;;;;;8.15;5.22;;;;;;;16.07;45.25;101569.47;5009905;28;20034;-71
2023/04/09 10:53:43;;;;;;;8.40;5.75;;;;;;;15.88;45.39;101588.94;5022572;28;20613;-70
2023/04/09 10:56:15;;;;;;;7.38;6.10;;;;;;;15.78;43.99;101571.72;5024140;28;20041;-71
2023/04/09 10:58:41;;;;;;;10.02;7.43;;;;;;;15.85;44.73;101575.97;5021678;28;20732;-71
2023/04/09 11:01:06;;;;;;;11.65;6.95;;;;;;;15.81;45.04;101576.91;5023648;28;20037;-71
2023/04/09 11:03:41;;;;;;;8.52;6.13;;;;;;;15.96;45.22;101581.84;5037977;28;20040;-71
2023/04/09 11:06:09;;;;;;;12.35;7.90;;;;;;;16.05;45.48;101590.38;5019510;28;20691;-71
2023/04/09 11:08:36;;;;;;;7.45;5.97;;;;;;;16.32;43.83;101571.59;5024902;28;20049;-72
2023/04/09 11:11:02;;;;;;;7.60;6.03;;;;;;;16.41;44.84;101573.19;5021193;28;20526;-71
2023/04/09 11:13:29;;;;;;;7.20;5.55;;;;;;;16.52;45.47;101579.03;5020805;28;20027;-71
2023/04/09 11:15:56;;;;;;;8.20;5.63;;;;;;;16.48;45.12;101582.59;5019754;28;20061;-71
2023/04/09 11:18:23;;;;;;;8.82;6.55;;;;;;;16.50;45.20;101587.81;5019393;28;20545;-70